North Bloomfield, Ohio
Current Conditions -  °F | °C
As of 2:51 AM on Thursday 23 Oct 2014 (Local Time) from KYNG Reporting Station
Few Clouds Few Clouds  
Wind Chill: 40°   Ceiling: Unl
Heat Index: 44°   Visibility: 10mi
Dew Point: 42°   Wind: 8mph
Humidity: 93%   Direction: 300°WNW
Pressure: 30.15"   Gusts: NA
Location:  41.46°N, 80.87°W
Report Text: KYNG 230651Z 30007KT 10SM FEW038 07/06 A3015 RMK AO2 SLP216 T00670056
Loading
Personal Weather Stations






























Interactive Weather Map
Tropical Storm Tracking
New forecast layout! Learn more

10-Day Weather Forecast

Advertisements
Track Severe Weather on mobile